createdAt,value
2022-11-28T05:46:50.685Z,4.40
2022-11-28T05:49:17.252Z,1.80
2022-11-28T05:51:43.771Z,1.50
2022-11-28T05:54:10.384Z,1.50
2022-11-28T05:56:42.114Z,1.50
2022-11-28T05:59:09.003Z,1.50
2022-11-28T06:01:35.559Z,1.50
2022-11-28T06:04:02.127Z,1.50
2022-11-28T06:06:29.654Z,1.50
2022-11-28T06:08:56.196Z,1.50
2022-11-28T06:11:23.586Z,1.50
2022-11-28T06:13:50.507Z,1.50
2022-11-28T06:16:18.522Z,1.70
2022-11-28T06:18:45.518Z,2.00
2022-11-28T18:42:41.884Z,2.20
2022-11-28T18:47:25.970Z,7.80
2022-11-28T18:59:21.310Z,12.80
2022-11-28T19:01:47.958Z,12.40
2022-11-28T19:04:15.520Z,11.10
2022-11-28T19:06:43.783Z,9.80
2022-11-28T19:09:13.675Z,8.90
2022-11-28T19:11:40.956Z,8.10
2022-11-28T19:14:08.705Z,7.70
2022-11-28T19:16:37.731Z,7.40
2022-11-28T19:19:05.910Z,7.40
2022-11-28T19:21:34.660Z,7.40
2022-11-28T19:24:02.089Z,7.30
2022-11-28T19:26:30.652Z,7.30
2022-11-28T19:28:57.626Z,7.40
2022-11-28T19:31:29.146Z,7.30
2022-11-28T19:34:04.545Z,7.10
2022-11-28T19:36:42.825Z,6.70
2022-11-28T19:39:17.028Z,6.40
2022-11-28T19:41:43.997Z,6.30
2022-11-28T19:44:11.750Z,6.20
2022-11-28T19:46:38.542Z,6.10
2022-11-28T19:49:06.549Z,6.10
2022-11-28T19:51:33.591Z,6.10
2022-11-28T19:54:03.537Z,6.10
2022-11-28T19:56:31.300Z,6.10
2022-11-28T19:58:58.675Z,6.00
2022-11-28T20:01:25.690Z,6.00
2022-11-28T20:03:52.750Z,6.00
2022-11-28T20:06:30.209Z,5.90
2022-11-28T20:09:00.243Z,5.90
2022-11-28T20:11:32.815Z,5.90
2022-11-28T20:14:09.978Z,5.90
2022-11-28T20:16:36.889Z,5.90
2022-11-28T20:19:04.557Z,5.90
2022-11-28T20:21:31.916Z,5.90
2022-11-28T20:24:04.986Z,5.90
2022-11-28T20:26:35.390Z,5.80
2022-11-28T20:29:02.020Z,5.90
2022-11-28T20:31:31.621Z,5.90
2022-11-28T20:33:58.582Z,5.80
2022-11-28T20:36:26.644Z,5.80
2022-11-28T20:38:54.703Z,5.80
2022-11-28T20:41:23.756Z,5.80
2022-11-28T20:43:50.896Z,5.80
2022-11-28T20:46:19.293Z,5.80
2022-11-28T20:48:46.835Z,5.80
2022-11-28T20:51:22.007Z,5.80
2022-11-28T20:53:48.927Z,5.80
2022-11-28T20:56:21.334Z,5.80
2022-11-28T20:58:48.628Z,5.80
2022-11-28T21:01:20.224Z,5.80
2022-11-28T21:03:47.247Z,5.70
2022-11-28T21:06:14.111Z,5.70
2022-11-28T21:08:40.781Z,5.70
2022-11-28T21:11:09.078Z,5.70
2022-11-28T21:13:35.786Z,5.70
2022-11-28T21:16:11.160Z,5.70
2022-11-28T21:18:41.098Z,5.70
2022-11-28T21:21:09.643Z,5.70
2022-11-28T21:23:37.109Z,5.60
2022-11-28T21:26:10.445Z,5.60
2022-11-28T21:28:38.267Z,5.60
2022-11-28T21:31:11.426Z,5.60
2022-11-28T21:33:38.275Z,5.60
2022-11-28T21:36:06.884Z,5.60
2022-11-28T21:38:34.725Z,5.60
2022-11-28T21:41:02.087Z,5.60
2022-11-28T21:43:29.003Z,5.60
2022-11-28T21:46:00.156Z,5.50
2022-11-28T21:48:29.063Z,5.60
2022-11-28T21:50:56.159Z,5.50
2022-11-28T21:53:22.799Z,5.50
2022-11-28T21:55:49.409Z,5.50
2022-11-28T21:58:15.968Z,5.50
2022-11-28T22:00:57.594Z,5.60
2022-11-28T22:03:26.319Z,5.60
2022-11-28T22:05:58.878Z,5.60
2022-11-28T22:08:25.500Z,5.70
2022-11-28T22:10:52.082Z,5.70
2022-11-28T22:13:18.652Z,5.70
2022-11-28T22:15:45.289Z,5.60
2022-11-28T22:18:12.170Z,5.60
2022-11-28T22:20:43.148Z,5.60
2022-11-28T22:23:11.065Z,5.60
2022-11-28T22:25:37.725Z,5.60
2022-11-28T22:28:04.466Z,5.50
2022-11-28T22:30:31.120Z,5.50
2022-11-28T22:32:57.761Z,5.50
2022-11-28T22:35:24.334Z,5.50
2022-11-28T22:37:53.576Z,5.50
2022-11-28T22:40:20.753Z,5.50
2022-11-28T22:42:47.507Z,5.50
2022-11-28T22:45:14.261Z,5.50
2022-11-28T22:47:40.875Z,5.50
2022-11-28T22:50:08.004Z,5.50
2022-11-28T22:52:35.133Z,5.50
2022-11-28T22:55:02.189Z,5.50
2022-11-28T22:57:28.974Z,5.50
2022-11-28T22:59:55.632Z,5.40
2022-11-28T23:02:22.313Z,5.40
2022-11-28T23:04:49.012Z,5.40
2022-11-28T23:07:15.901Z,5.40
2022-11-28T23:09:42.642Z,5.40
2022-11-28T23:12:09.246Z,5.40
2022-11-28T23:14:35.843Z,5.40
2022-11-28T23:17:02.435Z,5.40
2022-11-28T23:19:30.985Z,5.40
2022-11-28T23:21:57.608Z,5.40
2022-11-28T23:24:24.543Z,5.40
2022-11-28T23:26:52.510Z,5.40
2022-11-28T23:29:19.968Z,5.40
2022-11-28T23:31:47.596Z,5.40
2022-11-28T23:34:14.937Z,5.40
2022-11-28T23:36:47.869Z,5.40
2022-11-28T23:39:20.332Z,5.40
2022-11-28T23:41:47.544Z,5.50
2022-11-28T23:44:15.394Z,5.50
2022-11-28T23:46:42.849Z,5.50
2022-11-28T23:49:09.844Z,5.40
2022-11-28T23:51:36.911Z,5.50
2022-11-28T23:54:03.936Z,5.40
2022-11-28T23:56:33.419Z,5.40
2022-11-28T23:59:03.435Z,5.40
